Golden Triangle Regional Air, Mississippi
Current Conditions -  °F | °C
As of 5:45 PM on Monday 20 Oct 2014 (Local Time) from KGTR Reporting Station
Few Clouds Few Clouds  
Wind Chill: 20°   Ceiling: Unl
Heat Index: 20°   Visibility: 10mi
Dew Point:   Wind: 3mph
Humidity: 49%   Direction: 310°NW
Pressure: 30.01"   Gusts: NA
Location:  33.455°N, 88.5512°W
Report Text: KGTR 202245Z 31003KT 10SM FEW060 20/09 A3001
Loading
Personal Weather Stations






























Interactive Weather Map
Tropical Storm Tracking
New forecast layout! Learn more

10-Day Weather Forecast

Advertisements
Track Severe Weather on mobile